Belmont, Texas
Current Conditions -  °F | °C
As of 5:55 AM on Thursday 23 Oct 2014 (Local Time) from KT20 Reporting Station
Clear Clear  
Wind Chill: 64°   Ceiling: Unl
Heat Index: 64°   Visibility: 10mi
Dew Point: 62°   Wind: 3mph
Humidity: 92%   Direction: 330°NNW
Pressure: 30.09"   Gusts: NA
Location:  29.52°N, 97.68°W
Report Text: KT20 231055Z AUTO 33003KT 10SM CLR 18/17 A3009 RMK AO2 T01800166
Loading
Personal Weather Stations






























Interactive Weather Map
Tropical Storm Tracking
New forecast layout! Learn more

10-Day Weather Forecast

Advertisements
Track Severe Weather on mobile